sensor_id;sensor_type;location;lat;lon;timestamp;P1;durP1;ratioP1;P2;durP2;ratioP2
49412;SDS011;35493;50.276;9.372;2022-10-24T00:01:39;5.65;;;2.30;;
49412;SDS011;35493;50.276;9.372;2022-10-24T00:04:10;3.97;;;2.10;;
49412;SDS011;35493;50.276;9.372;2022-10-24T00:06:37;5.22;;;2.30;;
49412;SDS011;35493;50.276;9.372;2022-10-24T00:09:05;3.97;;;2.17;;
49412;SDS011;35493;50.276;9.372;2022-10-24T00:11:33;4.15;;;2.10;;
49412;SDS011;35493;50.276;9.372;2022-10-24T00:14:00;5.10;;;1.90;;
49412;SDS011;35493;50.276;9.372;2022-10-24T00:16:27;4.05;;;1.85;;
49412;SDS011;35493;50.276;9.372;2022-10-24T00:18:56;3.28;;;1.85;;
49412;SDS011;35493;50.276;9.372;2022-10-24T00:21:23;3.35;;;2.00;;
49412;SDS011;35493;50.276;9.372;2022-10-24T00:23:50;4.38;;;1.73;;
49412;SDS011;35493;50.276;9.372;2022-10-24T00:26:17;3.47;;;1.65;;
49412;SDS011;35493;50.276;9.372;2022-10-24T00:28:46;2.47;;;1.27;;
49412;SDS011;35493;50.276;9.372;2022-10-24T00:31:13;2.63;;;1.45;;
49412;SDS011;35493;50.276;9.372;2022-10-24T00:33:48;2.83;;;1.55;;
49412;SDS011;35493;50.276;9.372;2022-10-24T00:36:17;2.03;;;1.35;;
49412;SDS011;35493;50.276;9.372;2022-10-24T00:38:45;2.85;;;1.35;;
49412;SDS011;35493;50.276;9.372;2022-10-24T00:41:13;3.22;;;1.75;;
49412;SDS011;35493;50.276;9.372;2022-10-24T00:43:42;5.00;;;2.28;;
49412;SDS011;35493;50.276;9.372;2022-10-24T00:46:09;4.53;;;2.10;;
49412;SDS011;35493;50.276;9.372;2022-10-24T00:48:37;4.05;;;1.58;;
49412;SDS011;35493;50.276;9.372;2022-10-24T00:53:40;5.73;;;1.83;;
49412;SDS011;35493;50.276;9.372;2022-10-24T00:56:10;3.60;;;1.67;;
49412;SDS011;35493;50.276;9.372;2022-10-24T00:58:39;2.47;;;1.42;;
49412;SDS011;35493;50.276;9.372;2022-10-24T01:01:09;3.20;;;1.60;;
49412;SDS011;35493;50.276;9.372;2022-10-24T01:03:36;4.32;;;1.65;;
49412;SDS011;35493;50.276;9.372;2022-10-24T01:06:08;2.55;;;1.40;;
49412;SDS011;35493;50.276;9.372;2022-10-24T01:08:58;2.97;;;1.38;;
49412;SDS011;35493;50.276;9.372;2022-10-24T01:11:36;3.53;;;1.40;;
49412;SDS011;35493;50.276;9.372;2022-10-24T01:14:14;3.45;;;1.35;;
49412;SDS011;35493;50.276;9.372;2022-10-24T01:16:53;4.95;;;1.40;;
49412;SDS011;35493;50.276;9.372;2022-10-24T01:19:35;4.55;;;1.70;;
49412;SDS011;35493;50.276;9.372;2022-10-24T01:22:35;4.50;;;1.30;;
49412;SDS011;35493;50.276;9.372;2022-10-24T01:25:14;2.45;;;1.30;;
49412;SDS011;35493;50.276;9.372;2022-10-24T01:27:55;2.63;;;1.35;;
49412;SDS011;35493;50.276;9.372;2022-10-24T01:30:32;4.55;;;1.65;;
49412;SDS011;35493;50.276;9.372;2022-10-24T01:33:05;2.15;;;1.27;;
49412;SDS011;35493;50.276;9.372;2022-10-24T01:35:41;2.63;;;1.20;;
49412;SDS011;35493;50.276;9.372;2022-10-24T01:38:13;2.55;;;1.38;;
49412;SDS011;35493;50.276;9.372;2022-10-24T01:40:47;4.57;;;1.58;;
49412;SDS011;35493;50.276;9.372;2022-10-24T01:43:18;5.03;;;1.17;;
49412;SDS011;35493;50.276;9.372;2022-10-24T01:45:52;2.92;;;1.40;;
49412;SDS011;35493;50.276;9.372;2022-10-24T01:48:24;2.53;;;1.15;;
49412;SDS011;35493;50.276;9.372;2022-10-24T01:50:53;2.78;;;1.33;;
49412;SDS011;35493;50.276;9.372;2022-10-24T01:53:22;2.13;;;0.90;;
49412;SDS011;35493;50.276;9.372;2022-10-24T01:55:52;3.28;;;1.10;;
49412;SDS011;35493;50.276;9.372;2022-10-24T01:58:20;2.67;;;1.10;;
49412;SDS011;35493;50.276;9.372;2022-10-24T02:00:47;2.08;;;0.90;;
49412;SDS011;35493;50.276;9.372;2022-10-24T02:03:20;3.03;;;1.10;;
49412;SDS011;35493;50.276;9.372;2022-10-24T02:05:52;1.13;;;0.73;;
49412;SDS011;35493;50.276;9.372;2022-10-24T02:08:24;1.63;;;0.95;;
49412;SDS011;35493;50.276;9.372;2022-10-24T02:10:54;1.35;;;0.90;;
49412;SDS011;35493;50.276;9.372;2022-10-24T02:13:24;3.10;;;1.10;;
49412;SDS011;35493;50.276;9.372;2022-10-24T02:15:55;1.65;;;1.08;;
49412;SDS011;35493;50.276;9.372;2022-10-24T02:18:25;2.25;;;0.90;;
49412;SDS011;35493;50.276;9.372;2022-10-24T02:20:54;1.93;;;0.80;;
49412;SDS011;35493;50.276;9.372;2022-10-24T02:23:30;1.17;;;0.80;;
49412;SDS011;35493;50.276;9.372;2022-10-24T02:26:00;1.63;;;0.70;;
49412;SDS011;35493;50.276;9.372;2022-10-24T02:28:32;1.48;;;0.70;;
49412;SDS011;35493;50.276;9.372;2022-10-24T02:31:05;1.20;;;0.80;;
49412;SDS011;35493;50.276;9.372;2022-10-24T02:33:36;2.38;;;0.90;;
49412;SDS011;35493;50.276;9.372;2022-10-24T02:36:05;2.78;;;0.80;;
49412;SDS011;35493;50.276;9.372;2022-10-24T02:38:34;3.65;;;0.75;;
49412;SDS011;35493;50.276;9.372;2022-10-24T02:41:04;2.42;;;0.77;;
49412;SDS011;35493;50.276;9.372;2022-10-24T02:43:37;1.00;;;0.70;;
49412;SDS011;35493;50.276;9.372;2022-10-24T02:46:06;1.73;;;0.90;;
49412;SDS011;35493;50.276;9.372;2022-10-24T02:48:35;2.40;;;0.95;;
49412;SDS011;35493;50.276;9.372;2022-10-24T02:51:05;3.10;;;1.20;;
49412;SDS011;35493;50.276;9.372;2022-10-24T02:53:33;3.78;;;1.08;;
49412;SDS011;35493;50.276;9.372;2022-10-24T02:56:04;4.72;;;1.20;;
49412;SDS011;35493;50.276;9.372;2022-10-24T02:58:31;2.15;;;1.10;;
49412;SDS011;35493;50.276;9.372;2022-10-24T03:00:58;4.32;;;1.20;;
49412;SDS011;35493;50.276;9.372;2022-10-24T03:03:26;2.15;;;1.20;;
49412;SDS011;35493;50.276;9.372;2022-10-24T03:05:54;3.40;;;1.10;;
49412;SDS011;35493;50.276;9.372;2022-10-24T03:08:21;1.95;;;1.00;;
49412;SDS011;35493;50.276;9.372;2022-10-24T03:10:48;3.65;;;1.00;;
49412;SDS011;35493;50.276;9.372;2022-10-24T03:13:15;1.98;;;0.90;;
49412;SDS011;35493;50.276;9.372;2022-10-24T03:15:42;3.15;;;1.10;;
49412;SDS011;35493;50.276;9.372;2022-10-24T03:18:09;2.28;;;0.95;;
49412;SDS011;35493;50.276;9.372;2022-10-24T03:20:36;2.58;;;1.30;;
49412;SDS011;35493;50.276;9.372;2022-10-24T03:23:04;2.83;;;1.00;;
49412;SDS011;35493;50.276;9.372;2022-10-24T03:25:31;2.67;;;1.45;;
49412;SDS011;35493;50.276;9.372;2022-10-24T03:27:58;2.03;;;1.00;;
49412;SDS011;35493;50.276;9.372;2022-10-24T03:30:25;2.00;;;1.00;;
49412;SDS011;35493;50.276;9.372;2022-10-24T03:32:52;3.03;;;1.10;;
49412;SDS011;35493;50.276;9.372;2022-10-24T03:35:19;1.73;;;1.10;;
49412;SDS011;35493;50.276;9.372;2022-10-24T03:37:48;4.82;;;1.30;;
49412;SDS011;35493;50.276;9.372;2022-10-24T03:40:16;2.22;;;1.05;;
49412;SDS011;35493;50.276;9.372;2022-10-24T03:42:43;3.47;;;1.25;;
49412;SDS011;35493;50.276;9.372;2022-10-24T03:45:10;2.17;;;1.00;;
49412;SDS011;35493;50.276;9.372;2022-10-24T03:47:36;2.85;;;1.50;;
49412;SDS011;35493;50.276;9.372;2022-10-24T03:50:04;1.85;;;1.00;;
49412;SDS011;35493;50.276;9.372;2022-10-24T03:52:32;2.28;;;1.10;;
49412;SDS011;35493;50.276;9.372;2022-10-24T03:54:59;3.50;;;1.15;;
49412;SDS011;35493;50.276;9.372;2022-10-24T03:57:28;2.30;;;1.15;;
49412;SDS011;35493;50.276;9.372;2022-10-24T03:59:55;2.22;;;1.10;;
49412;SDS011;35493;50.276;9.372;2022-10-24T04:02:22;1.75;;;1.00;;
49412;SDS011;35493;50.276;9.372;2022-10-24T04:04:49;2.83;;;1.30;;
49412;SDS011;35493;50.276;9.372;2022-10-24T04:07:16;2.60;;;1.10;;
49412;SDS011;35493;50.276;9.372;2022-10-24T04:09:43;3.10;;;1.10;;
49412;SDS011;35493;50.276;9.372;2022-10-24T04:12:10;2.78;;;1.20;;
49412;SDS011;35493;50.276;9.372;2022-10-24T04:14:38;4.22;;;1.10;;
49412;SDS011;35493;50.276;9.372;2022-10-24T04:17:05;3.28;;;1.13;;
49412;SDS011;35493;50.276;9.372;2022-10-24T04:19:32;2.92;;;1.05;;
49412;SDS011;35493;50.276;9.372;2022-10-24T04:21:59;2.53;;;1.27;;
49412;SDS011;35493;50.276;9.372;2022-10-24T04:24:26;3.17;;;1.10;;
49412;SDS011;35493;50.276;9.372;2022-10-24T04:26:52;2.65;;;1.20;;
49412;SDS011;35493;50.276;9.372;2022-10-24T04:29:19;2.13;;;1.00;;
49412;SDS011;35493;50.276;9.372;2022-10-24T04:31:48;3.53;;;1.05;;
49412;SDS011;35493;50.276;9.372;2022-10-24T04:34:15;2.13;;;1.00;;
49412;SDS011;35493;50.276;9.372;2022-10-24T04:36:42;2.85;;;1.27;;
49412;SDS011;35493;50.276;9.372;2022-10-24T04:39:09;2.05;;;1.15;;
49412;SDS011;35493;50.276;9.372;2022-10-24T04:41:36;3.58;;;1.25;;
49412;SDS011;35493;50.276;9.372;2022-10-24T04:44:03;2.88;;;1.10;;
49412;SDS011;35493;50.276;9.372;2022-10-24T04:46:30;2.10;;;1.10;;
49412;SDS011;35493;50.276;9.372;2022-10-24T04:48:58;3.28;;;1.35;;
49412;SDS011;35493;50.276;9.372;2022-10-24T04:51:26;2.38;;;1.20;;
49412;SDS011;35493;50.276;9.372;2022-10-24T04:53:53;2.15;;;1.20;;
49412;SDS011;35493;50.276;9.372;2022-10-24T04:56:20;3.13;;;1.35;;
49412;SDS011;35493;50.276;9.372;2022-10-24T04:58:50;2.15;;;1.15;;
49412;SDS011;35493;50.276;9.372;2022-10-24T05:01:16;5.15;;;1.50;;
49412;SDS011;35493;50.276;9.372;2022-10-24T05:03:44;3.13;;;1.30;;
49412;SDS011;35493;50.276;9.372;2022-10-24T05:06:12;4.65;;;1.35;;
49412;SDS011;35493;50.276;9.372;2022-10-24T05:08:39;4.50;;;1.50;;
49412;SDS011;35493;50.276;9.372;2022-10-24T05:11:08;3.55;;;1.27;;
49412;SDS011;35493;50.276;9.372;2022-10-24T05:13:35;4.22;;;1.52;;
49412;SDS011;35493;50.276;9.372;2022-10-24T05:16:02;3.63;;;1.42;;
49412;SDS011;35493;50.276;9.372;2022-10-24T05:18:30;3.67;;;1.33;;
49412;SDS011;35493;50.276;9.372;2022-10-24T05:20:57;6.60;;;1.30;;
49412;SDS011;35493;50.276;9.372;2022-10-24T05:23:26;4.72;;;1.80;;
49412;SDS011;35493;50.276;9.372;2022-10-24T05:25:53;3.25;;;1.60;;
49412;SDS011;35493;50.276;9.372;2022-10-24T05:28:20;3.55;;;1.45;;
49412;SDS011;35493;50.276;9.372;2022-10-24T05:30:47;2.97;;;1.48;;
49412;SDS011;35493;50.276;9.372;2022-10-24T05:33:14;3.08;;;1.48;;
49412;SDS011;35493;50.276;9.372;2022-10-24T05:35:41;5.68;;;1.85;;
49412;SDS011;35493;50.276;9.372;2022-10-24T05:38:09;4.38;;;1.42;;
49412;SDS011;35493;50.276;9.372;2022-10-24T05:40:38;4.70;;;1.75;;
49412;SDS011;35493;50.276;9.372;2022-10-24T05:43:04;5.07;;;1.42;;
49412;SDS011;35493;50.276;9.372;2022-10-24T05:45:31;8.85;;;1.92;;
49412;SDS011;35493;50.276;9.372;2022-10-24T05:47:58;5.35;;;2.30;;
49412;SDS011;35493;50.276;9.372;2022-10-24T05:50:27;5.35;;;1.75;;
49412;SDS011;35493;50.276;9.372;2022-10-24T05:52:55;7.03;;;1.40;;
49412;SDS011;35493;50.276;9.372;2022-10-24T05:55:22;4.70;;;2.00;;
49412;SDS011;35493;50.276;9.372;2022-10-24T05:57:50;6.63;;;2.28;;
49412;SDS011;35493;50.276;9.372;2022-10-24T06:00:17;5.85;;;1.65;;
49412;SDS011;35493;50.276;9.372;2022-10-24T06:02:44;4.50;;;1.45;;
49412;SDS011;35493;50.276;9.372;2022-10-24T06:05:11;7.32;;;2.15;;
49412;SDS011;35493;50.276;9.372;2022-10-24T06:07:39;8.25;;;1.90;;
49412;SDS011;35493;50.276;9.372;2022-10-24T06:10:07;6.78;;;1.83;;
49412;SDS011;35493;50.276;9.372;2022-10-24T06:12:34;3.85;;;1.70;;
49412;SDS011;35493;50.276;9.372;2022-10-24T06:15:03;5.13;;;1.60;;
49412;SDS011;35493;50.276;9.372;2022-10-24T06:19:58;3.72;;;1.35;;
49412;SDS011;35493;50.276;9.372;2022-10-24T06:22:26;6.85;;;1.33;;
49412;SDS011;35493;50.276;9.372;2022-10-24T06:24:54;5.18;;;1.70;;
49412;SDS011;35493;50.276;9.372;2022-10-24T06:27:21;6.47;;;2.38;;
49412;SDS011;35493;50.276;9.372;2022-10-24T06:29:48;4.85;;;1.70;;
49412;SDS011;35493;50.276;9.372;2022-10-24T06:32:16;3.55;;;2.00;;
49412;SDS011;35493;50.276;9.372;2022-10-24T06:34:43;3.92;;;1.60;;
49412;SDS011;35493;50.276;9.372;2022-10-24T06:37:10;6.25;;;2.30;;
49412;SDS011;35493;50.276;9.372;2022-10-24T06:39:37;5.55;;;1.60;;
49412;SDS011;35493;50.276;9.372;2022-10-24T06:42:04;8.70;;;2.95;;
49412;SDS011;35493;50.276;9.372;2022-10-24T06:44:31;4.60;;;2.00;;
49412;SDS011;35493;50.276;9.372;2022-10-24T06:46:58;5.13;;;1.90;;
49412;SDS011;35493;50.276;9.372;2022-10-24T06:49:27;5.82;;;2.05;;
49412;SDS011;35493;50.276;9.372;2022-10-24T06:51:53;9.27;;;2.10;;
49412;SDS011;35493;50.276;9.372;2022-10-24T06:54:21;7.20;;;2.17;;
49412;SDS011;35493;50.276;9.372;2022-10-24T06:56:49;5.05;;;2.00;;
49412;SDS011;35493;50.276;9.372;2022-10-24T06:59:16;8.05;;;2.22;;
49412;SDS011;35493;50.276;9.372;2022-10-24T07:01:44;6.45;;;2.55;;
49412;SDS011;35493;50.276;9.372;2022-10-24T07:04:11;6.20;;;2.53;;
49412;SDS011;35493;50.276;9.372;2022-10-24T07:06:39;8.60;;;2.67;;
49412;SDS011;35493;50.276;9.372;2022-10-24T07:09:06;8.20;;;2.45;;
49412;SDS011;35493;50.276;9.372;2022-10-24T07:11:33;5.95;;;2.47;;
49412;SDS011;35493;50.276;9.372;2022-10-24T07:14:00;5.18;;;2.13;;
49412;SDS011;35493;50.276;9.372;2022-10-24T07:16:27;2.97;;;1.52;;
49412;SDS011;35493;50.276;9.372;2022-10-24T07:18:54;6.38;;;2.10;;
49412;SDS011;35493;50.276;9.372;2022-10-24T07:21:22;7.07;;;1.88;;
49412;SDS011;35493;50.276;9.372;2022-10-24T07:23:52;4.72;;;1.98;;
49412;SDS011;35493;50.276;9.372;2022-10-24T07:26:20;4.55;;;1.90;;
49412;SDS011;35493;50.276;9.372;2022-10-24T07:28:49;4.47;;;2.05;;
49412;SDS011;35493;50.276;9.372;2022-10-24T07:31:22;7.95;;;2.38;;
49412;SDS011;35493;50.276;9.372;2022-10-24T07:33:52;4.65;;;2.13;;
49412;SDS011;35493;50.276;9.372;2022-10-24T07:36:19;4.47;;;1.95;;
49412;SDS011;35493;50.276;9.372;2022-10-24T07:38:49;4.50;;;1.90;;
49412;SDS011;35493;50.276;9.372;2022-10-24T07:41:18;5.10;;;2.08;;
49412;SDS011;35493;50.276;9.372;2022-10-24T07:43:45;5.13;;;2.00;;
49412;SDS011;35493;50.276;9.372;2022-10-24T07:46:13;4.57;;;1.88;;
49412;SDS011;35493;50.276;9.372;2022-10-24T07:48:41;5.45;;;1.80;;
49412;SDS011;35493;50.276;9.372;2022-10-24T07:51:09;4.50;;;1.70;;
49412;SDS011;35493;50.276;9.372;2022-10-24T07:53:38;6.95;;;1.88;;
49412;SDS011;35493;50.276;9.372;2022-10-24T07:56:05;5.70;;;1.80;;
49412;SDS011;35493;50.276;9.372;2022-10-24T07:58:36;4.72;;;1.33;;
49412;SDS011;35493;50.276;9.372;2022-10-24T08:01:03;4.45;;;1.40;;
49412;SDS011;35493;50.276;9.372;2022-10-24T08:03:31;4.38;;;1.75;;
49412;SDS011;35493;50.276;9.372;2022-10-24T08:05:58;6.07;;;2.03;;
49412;SDS011;35493;50.276;9.372;2022-10-24T08:08:28;3.45;;;1.90;;
49412;SDS011;35493;50.276;9.372;2022-10-24T08:10:54;5.72;;;1.98;;
49412;SDS011;35493;50.276;9.372;2022-10-24T08:13:21;3.97;;;1.90;;
49412;SDS011;35493;50.276;9.372;2022-10-24T08:15:50;3.70;;;1.90;;
49412;SDS011;35493;50.276;9.372;2022-10-24T08:18:16;7.40;;;2.10;;
49412;SDS011;35493;50.276;9.372;2022-10-24T08:20:43;4.82;;;2.17;;
49412;SDS011;35493;50.276;9.372;2022-10-24T08:23:10;4.93;;;1.90;;
49412;SDS011;35493;50.276;9.372;2022-10-24T08:25:38;6.13;;;2.45;;
49412;SDS011;35493;50.276;9.372;2022-10-24T08:28:05;4.53;;;2.42;;
49412;SDS011;35493;50.276;9.372;2022-10-24T08:30:32;6.63;;;2.72;;
49412;SDS011;35493;50.276;9.372;2022-10-24T08:33:00;6.03;;;2.63;;
49412;SDS011;35493;50.276;9.372;2022-10-24T08:35:27;7.53;;;2.80;;
49412;SDS011;35493;50.276;9.372;2022-10-24T08:37:54;6.00;;;2.80;;
49412;SDS011;35493;50.276;9.372;2022-10-24T08:40:22;7.50;;;2.35;;
49412;SDS011;35493;50.276;9.372;2022-10-24T08:42:49;6.20;;;2.60;;
49412;SDS011;35493;50.276;9.372;2022-10-24T08:45:18;8.13;;;2.50;;
49412;SDS011;35493;50.276;9.372;2022-10-24T08:47:53;7.65;;;2.13;;
49412;SDS011;35493;50.276;9.372;2022-10-24T08:50:29;7.75;;;2.47;;
49412;SDS011;35493;50.276;9.372;2022-10-24T08:52:59;5.95;;;2.30;;
49412;SDS011;35493;50.276;9.372;2022-10-24T08:55:30;4.72;;;2.50;;
49412;SDS011;35493;50.276;9.372;2022-10-24T08:58:02;6.60;;;2.53;;
49412;SDS011;35493;50.276;9.372;2022-10-24T09:00:32;6.78;;;2.70;;
49412;SDS011;35493;50.276;9.372;2022-10-24T09:03:05;7.45;;;2.90;;
49412;SDS011;35493;50.276;9.372;2022-10-24T09:05:41;6.55;;;2.75;;
49412;SDS011;35493;50.276;9.372;2022-10-24T09:08:15;5.88;;;2.50;;
49412;SDS011;35493;50.276;9.372;2022-10-24T09:10:48;4.85;;;2.30;;
49412;SDS011;35493;50.276;9.372;2022-10-24T09:13:19;6.07;;;2.33;;
49412;SDS011;35493;50.276;9.372;2022-10-24T09:15:48;4.55;;;2.17;;
49412;SDS011;35493;50.276;9.372;2022-10-24T09:18:16;6.80;;;2.63;;
49412;SDS011;35493;50.276;9.372;2022-10-24T09:20:48;6.47;;;2.63;;
49412;SDS011;35493;50.276;9.372;2022-10-24T09:23:16;6.93;;;2.67;;
49412;SDS011;35493;50.276;9.372;2022-10-24T09:25:46;6.93;;;2.90;;
49412;SDS011;35493;50.276;9.372;2022-10-24T09:28:15;6.07;;;2.80;;
49412;SDS011;35493;50.276;9.372;2022-10-24T09:30:42;6.18;;;2.90;;
49412;SDS011;35493;50.276;9.372;2022-10-24T09:33:13;10.60;;;4.10;;
49412;SDS011;35493;50.276;9.372;2022-10-24T09:35:51;6.45;;;3.78;;
49412;SDS011;35493;50.276;9.372;2022-10-24T09:38:25;8.88;;;4.18;;
49412;SDS011;35493;50.276;9.372;2022-10-24T09:40:56;7.70;;;4.05;;
49412;SDS011;35493;50.276;9.372;2022-10-24T09:43:30;9.65;;;3.92;;
49412;SDS011;35493;50.276;9.372;2022-10-24T09:46:05;10.38;;;3.70;;
49412;SDS011;35493;50.276;9.372;2022-10-24T09:48:37;11.43;;;3.45;;
49412;SDS011;35493;50.276;9.372;2022-10-24T09:51:22;7.13;;;3.20;;
49412;SDS011;35493;50.276;9.372;2022-10-24T09:54:02;8.88;;;3.00;;
49412;SDS011;35493;50.276;9.372;2022-10-24T09:56:53;9.05;;;2.97;;
49412;SDS011;35493;50.276;9.372;2022-10-24T09:59:26;9.68;;;2.78;;
49412;SDS011;35493;50.276;9.372;2022-10-24T10:02:16;6.57;;;2.85;;
49412;SDS011;35493;50.276;9.372;2022-10-24T10:04:56;9.70;;;2.97;;
49412;SDS011;35493;50.276;9.372;2022-10-24T10:07:45;6.50;;;2.80;;
49412;SDS011;35493;50.276;9.372;2022-10-24T10:10:28;5.80;;;2.35;;
49412;SDS011;35493;50.276;9.372;2022-10-24T10:13:02;8.73;;;2.22;;
49412;SDS011;35493;50.276;9.372;2022-10-24T10:15:32;8.45;;;2.88;;
49412;SDS011;35493;50.276;9.372;2022-10-24T10:18:03;7.20;;;2.08;;
49412;SDS011;35493;50.276;9.372;2022-10-24T10:20:45;5.95;;;2.30;;
49412;SDS011;35493;50.276;9.372;2022-10-24T10:23:26;5.80;;;2.33;;
49412;SDS011;35493;50.276;9.372;2022-10-24T10:26:00;4.80;;;2.00;;
49412;SDS011;35493;50.276;9.372;2022-10-24T10:28:33;9.35;;;2.35;;
49412;SDS011;35493;50.276;9.372;2022-10-24T10:31:01;6.78;;;1.90;;
49412;SDS011;35493;50.276;9.372;2022-10-24T10:33:29;6.60;;;2.03;;
49412;SDS011;35493;50.276;9.372;2022-10-24T10:36:03;7.32;;;1.70;;
49412;SDS011;35493;50.276;9.372;2022-10-24T10:38:41;10.63;;;2.25;;
49412;SDS011;35493;50.276;9.372;2022-10-24T10:41:15;8.68;;;2.00;;
49412;SDS011;35493;50.276;9.372;2022-10-24T10:43:49;4.45;;;1.75;;
49412;SDS011;35493;50.276;9.372;2022-10-24T10:46:25;6.72;;;1.95;;
49412;SDS011;35493;50.276;9.372;2022-10-24T10:49:00;5.63;;;1.67;;
49412;SDS011;35493;50.276;9.372;2022-10-24T10:51:36;4.85;;;1.27;;
49412;SDS011;35493;50.276;9.372;2022-10-24T10:54:11;4.90;;;1.80;;
49412;SDS011;35493;50.276;9.372;2022-10-24T10:56:51;7.95;;;1.80;;
49412;SDS011;35493;50.276;9.372;2022-10-24T10:59:30;6.75;;;1.40;;
49412;SDS011;35493;50.276;9.372;2022-10-24T11:02:09;7.38;;;2.15;;
49412;SDS011;35493;50.276;9.372;2022-10-24T11:04:48;5.50;;;1.73;;
49412;SDS011;35493;50.276;9.372;2022-10-24T11:07:26;5.90;;;1.80;;
49412;SDS011;35493;50.276;9.372;2022-10-24T11:10:02;4.95;;;1.50;;
49412;SDS011;35493;50.276;9.372;2022-10-24T11:12:33;8.50;;;1.90;;
49412;SDS011;35493;50.276;9.372;2022-10-24T11:15:04;8.13;;;1.70;;
49412;SDS011;35493;50.276;9.372;2022-10-24T11:17:36;5.63;;;1.42;;
49412;SDS011;35493;50.276;9.372;2022-10-24T11:20:13;4.75;;;1.75;;
49412;SDS011;35493;50.276;9.372;2022-10-24T11:22:45;5.68;;;1.45;;
49412;SDS011;35493;50.276;9.372;2022-10-24T11:25:19;3.75;;;1.30;;
49412;SDS011;35493;50.276;9.372;2022-10-24T11:27:51;6.97;;;1.70;;
49412;SDS011;35493;50.276;9.372;2022-10-24T11:30:30;6.85;;;1.20;;
49412;SDS011;35493;50.276;9.372;2022-10-24T11:33:04;4.60;;;1.20;;
49412;SDS011;35493;50.276;9.372;2022-10-24T11:35:35;4.93;;;1.33;;
49412;SDS011;35493;50.276;9.372;2022-10-24T11:38:11;8.20;;;1.50;;
49412;SDS011;35493;50.276;9.372;2022-10-24T11:40:43;4.32;;;1.20;;
49412;SDS011;35493;50.276;9.372;2022-10-24T11:43:14;7.47;;;1.70;;
49412;SDS011;35493;50.276;9.372;2022-10-24T11:45:48;5.97;;;1.50;;
49412;SDS011;35493;50.276;9.372;2022-10-24T11:48:22;5.75;;;1.30;;
49412;SDS011;35493;50.276;9.372;2022-10-24T11:50:57;5.68;;;1.40;;
49412;SDS011;35493;50.276;9.372;2022-10-24T11:53:46;3.60;;;1.38;;
49412;SDS011;35493;50.276;9.372;2022-10-24T11:56:21;5.15;;;1.75;;
49412;SDS011;35493;50.276;9.372;2022-10-24T11:58:55;4.10;;;1.30;;
49412;SDS011;35493;50.276;9.372;2022-10-24T12:04:09;2.95;;;1.15;;
49412;SDS011;35493;50.276;9.372;2022-10-24T12:06:58;5.20;;;1.33;;
49412;SDS011;35493;50.276;9.372;2022-10-24T12:09:53;4.68;;;1.33;;
49412;SDS011;35493;50.276;9.372;2022-10-24T12:12:39;4.75;;;1.27;;
49412;SDS011;35493;50.276;9.372;2022-10-24T12:15:19;6.53;;;1.65;;
49412;SDS011;35493;50.276;9.372;2022-10-24T12:18:02;4.03;;;1.30;;
49412;SDS011;35493;50.276;9.372;2022-10-24T12:20:32;4.75;;;1.50;;
49412;SDS011;35493;50.276;9.372;2022-10-24T12:23:00;4.63;;;1.60;;
49412;SDS011;35493;50.276;9.372;2022-10-24T12:25:29;4.85;;;1.40;;
49412;SDS011;35493;50.276;9.372;2022-10-24T12:28:02;5.38;;;1.80;;
49412;SDS011;35493;50.276;9.372;2022-10-24T12:30:32;3.97;;;1.52;;
49412;SDS011;35493;50.276;9.372;2022-10-24T12:33:09;5.85;;;1.48;;
49412;SDS011;35493;50.276;9.372;2022-10-24T12:35:45;7.85;;;1.45;;
49412;SDS011;35493;50.276;9.372;2022-10-24T12:41:35;4.00;;;1.55;;
49412;SDS011;35493;50.276;9.372;2022-10-24T12:44:34;4.70;;;1.67;;
49412;SDS011;35493;50.276;9.372;2022-10-24T12:49:55;7.82;;;1.77;;
49412;SDS011;35493;50.276;9.372;2022-10-24T12:55:28;4.90;;;1.58;;
49412;SDS011;35493;50.276;9.372;2022-10-24T12:58:22;5.93;;;1.90;;
49412;SDS011;35493;50.276;9.372;2022-10-24T13:00:53;3.58;;;1.52;;
49412;SDS011;35493;50.276;9.372;2022-10-24T13:03:29;4.93;;;1.10;;
49412;SDS011;35493;50.276;9.372;2022-10-24T13:06:11;4.90;;;1.58;;
49412;SDS011;35493;50.276;9.372;2022-10-24T13:08:45;3.20;;;1.33;;
49412;SDS011;35493;50.276;9.372;2022-10-24T13:11:27;5.00;;;1.40;;
49412;SDS011;35493;50.276;9.372;2022-10-24T13:16:55;5.60;;;1.30;;
49412;SDS011;35493;50.276;9.372;2022-10-24T13:19:28;5.45;;;1.45;;
49412;SDS011;35493;50.276;9.372;2022-10-24T13:21:56;6.60;;;1.58;;
49412;SDS011;35493;50.276;9.372;2022-10-24T13:24:30;3.08;;;1.35;;
49412;SDS011;35493;50.276;9.372;2022-10-24T13:27:21;6.60;;;1.77;;
49412;SDS011;35493;50.276;9.372;2022-10-24T13:32:31;3.80;;;1.17;;
49412;SDS011;35493;50.276;9.372;2022-10-24T13:35:00;7.75;;;1.40;;
49412;SDS011;35493;50.276;9.372;2022-10-24T13:37:29;4.63;;;1.33;;
49412;SDS011;35493;50.276;9.372;2022-10-24T13:40:02;4.57;;;1.30;;
49412;SDS011;35493;50.276;9.372;2022-10-24T13:42:35;5.90;;;1.27;;
49412;SDS011;35493;50.276;9.372;2022-10-24T13:45:15;6.38;;;1.50;;
49412;SDS011;35493;50.276;9.372;2022-10-24T13:47:47;4.70;;;1.40;;
49412;SDS011;35493;50.276;9.372;2022-10-24T13:50:18;6.68;;;1.58;;
49412;SDS011;35493;50.276;9.372;2022-10-24T13:52:48;3.13;;;1.17;;
49412;SDS011;35493;50.276;9.372;2022-10-24T13:55:23;3.63;;;1.30;;
49412;SDS011;35493;50.276;9.372;2022-10-24T13:57:53;5.50;;;1.45;;
49412;SDS011;35493;50.276;9.372;2022-10-24T14:00:26;3.92;;;1.38;;
49412;SDS011;35493;50.276;9.372;2022-10-24T14:02:55;6.28;;;1.25;;
49412;SDS011;35493;50.276;9.372;2022-10-24T14:05:30;6.10;;;1.70;;
49412;SDS011;35493;50.276;9.372;2022-10-24T14:08:01;4.88;;;1.40;;
49412;SDS011;35493;50.276;9.372;2022-10-24T14:10:30;4.85;;;1.40;;
49412;SDS011;35493;50.276;9.372;2022-10-24T14:12:58;9.25;;;1.38;;
49412;SDS011;35493;50.276;9.372;2022-10-24T14:15:29;3.15;;;1.38;;
49412;SDS011;35493;50.276;9.372;2022-10-24T14:20:27;4.97;;;1.00;;
49412;SDS011;35493;50.276;9.372;2022-10-24T14:22:56;4.93;;;1.23;;
49412;SDS011;35493;50.276;9.372;2022-10-24T14:25:24;5.03;;;1.50;;
49412;SDS011;35493;50.276;9.372;2022-10-24T14:27:56;7.55;;;1.52;;
49412;SDS011;35493;50.276;9.372;2022-10-24T14:30:25;5.75;;;1.73;;
49412;SDS011;35493;50.276;9.372;2022-10-24T14:33:05;4.93;;;1.38;;
49412;SDS011;35493;50.276;9.372;2022-10-24T14:35:45;3.67;;;1.17;;
49412;SDS011;35493;50.276;9.372;2022-10-24T14:38:13;5.65;;;1.52;;
49412;SDS011;35493;50.276;9.372;2022-10-24T14:40:41;4.00;;;1.75;;
49412;SDS011;35493;50.276;9.372;2022-10-24T14:43:11;6.63;;;1.70;;
49412;SDS011;35493;50.276;9.372;2022-10-24T14:45:39;6.40;;;1.80;;
49412;SDS011;35493;50.276;9.372;2022-10-24T14:48:14;5.53;;;1.48;;
49412;SDS011;35493;50.276;9.372;2022-10-24T14:50:48;6.85;;;1.60;;
49412;SDS011;35493;50.276;9.372;2022-10-24T14:53:22;5.53;;;1.58;;
49412;SDS011;35493;50.276;9.372;2022-10-24T14:55:51;5.97;;;1.63;;
49412;SDS011;35493;50.276;9.372;2022-10-24T14:58:21;5.03;;;1.52;;
49412;SDS011;35493;50.276;9.372;2022-10-24T15:00:49;5.38;;;1.50;;
49412;SDS011;35493;50.276;9.372;2022-10-24T15:03:18;6.93;;;1.77;;
49412;SDS011;35493;50.276;9.372;2022-10-24T15:05:53;4.78;;;1.50;;
49412;SDS011;35493;50.276;9.372;2022-10-24T15:08:24;7.10;;;1.67;;
49412;SDS011;35493;50.276;9.372;2022-10-24T15:11:11;5.60;;;1.73;;
49412;SDS011;35493;50.276;9.372;2022-10-24T15:13:44;6.40;;;1.63;;
49412;SDS011;35493;50.276;9.372;2022-10-24T15:16:22;7.95;;;1.52;;
49412;SDS011;35493;50.276;9.372;2022-10-24T15:18:55;9.02;;;3.42;;
49412;SDS011;35493;50.276;9.372;2022-10-24T15:21:23;17.88;;;11.38;;
49412;SDS011;35493;50.276;9.372;2022-10-24T15:23:56;20.98;;;12.93;;
49412;SDS011;35493;50.276;9.372;2022-10-24T15:26:26;18.95;;;11.82;;
49412;SDS011;35493;50.276;9.372;2022-10-24T15:29:03;14.32;;;10.68;;
49412;SDS011;35493;50.276;9.372;2022-10-24T15:31:34;14.75;;;9.70;;
49412;SDS011;35493;50.276;9.372;2022-10-24T15:34:03;15.98;;;9.40;;
49412;SDS011;35493;50.276;9.372;2022-10-24T15:36:32;11.93;;;7.22;;